Time;durP1;ratioP1;P1;durP2;ratioP2;P2;SDS_P1;SDS_P2;PMS_P1;PMS_P2;Temp;Humidity;BMP_temperature;BMP_pressure;BME280_temperature;BME280_humidity;BME280_pressure;Samples;Min_cycle;Max_cycle;Signal;HPM_P1;HPM_P2
2021/08/27 00:00:47;;;;;;;8.10;2.13;;;;;;;;;;5000951;28;20050;-69
2021/08/27 00:03:32;;;;;;;8.57;1.73;;;;;;;;;;5012303;28;20512;-71
2021/08/27 00:06:17;;;;;;;9.60;2.08;;;;;;;;;;5012572;28;20129;-70
2021/08/27 00:09:03;;;;;;;7.30;1.60;;;;;;;;;;5013869;28;20057;-70
2021/08/27 00:11:48;;;;;;;9.73;1.63;;;;;;;;;;5011594;28;20053;-69
2021/08/27 00:14:33;;;;;;;6.18;1.60;;;;;;;;;;5003186;28;20062;-69
2021/08/27 00:17:18;;;;;;;11.38;1.90;;;;;;;;;;4992403;28;20062;-70
2021/08/27 00:20:04;;;;;;;7.45;1.58;;;;;;;;;;4992820;28;20564;-69
2021/08/27 00:22:50;;;;;;;8.80;1.83;;;;;;;;;;4991407;28;20067;-70
2021/08/27 00:25:35;;;;;;;6.72;1.52;;;;;;;;;;4992424;28;20062;-69
2021/08/27 00:28:20;;;;;;;4.20;1.15;;;;;;;;;;4992560;28;20062;-69
2021/08/27 00:31:05;;;;;;;10.45;1.40;;;;;;;;;;4993909;28;20062;-69
2021/08/27 00:33:50;;;;;;;10.13;1.77;;;;;;;;;;5011647;28;20050;-69
2021/08/27 00:36:35;;;;;;;10.18;1.92;;;;;;;;;;5011938;28;20548;-69
2021/08/27 00:39:20;;;;;;;10.95;2.75;;;;;;;;;;5012147;28;20050;-70
2021/08/27 00:42:06;;;;;;;8.45;1.63;;;;;;;;;;5003282;28;20378;-69
2021/08/27 00:44:51;;;;;;;6.20;1.48;;;;;;;;;;4991999;28;20054;-70
2021/08/27 00:47:36;;;;;;;9.25;1.70;;;;;;;;;;4992287;28;20058;-69
2021/08/27 00:50:21;;;;;;;6.35;2.53;;;;;;;;;;4992177;28;20058;-69
2021/08/27 00:53:06;;;;;;;6.78;2.55;;;;;;;;;;4995933;28;20047;-70
2021/08/27 00:55:52;;;;;;;5.90;1.50;;;;;;;;;;4996185;28;20111;-70
2021/08/27 00:58:37;;;;;;;5.97;2.10;;;;;;;;;;4982596;28;20125;-70
2021/08/27 01:01:22;;;;;;;6.47;1.95;;;;;;;;;;4996659;28;20102;-70
2021/08/27 01:04:07;;;;;;;9.45;1.88;;;;;;;;;;4995623;28;20058;-69
2021/08/27 01:06:52;;;;;;;5.40;1.88;;;;;;;;;;4996786;28;20054;-69
2021/08/27 01:09:41;;;;;;;7.10;1.83;;;;;;;;;;4996360;28;20058;-69
2021/08/27 01:12:31;;;;;;;12.52;2.67;;;;;;;;;;4996710;28;20054;-69
2021/08/27 01:15:19;;;;;;;8.40;1.80;;;;;;;;;;5001841;28;20054;-69
2021/08/27 01:18:05;;;;;;;10.48;2.58;;;;;;;;;;5016896;28;20053;-69
2021/08/27 01:21:01;;;;;;;9.60;1.95;;;;;;;;;;5015728;28;20054;-69
2021/08/27 01:23:47;;;;;;;11.77;2.28;;;;;;;;;;5004626;28;20086;-70
2021/08/27 01:26:36;;;;;;;11.50;2.58;;;;;;;;;;4981243;28;20062;-70
2021/08/27 01:29:43;;;;;;;8.90;2.40;;;;;;;;;;4982423;28;20058;-70
2021/08/27 01:32:35;;;;;;;13.10;2.97;;;;;;;;;;4982182;28;20062;-70
2021/08/27 01:35:21;;;;;;;11.65;2.33;;;;;;;;;;4982092;28;20058;-70
2021/08/27 01:38:08;;;;;;;8.27;2.08;;;;;;;;;;4995732;28;20476;-70
2021/08/27 01:40:53;;;;;;;9.10;2.05;;;;;;;;;;4982461;28;20050;-69
2021/08/27 01:43:38;;;;;;;10.73;1.85;;;;;;;;;;4993965;28;20054;-69
2021/08/27 01:46:23;;;;;;;8.88;2.00;;;;;;;;;;4995668;28;20058;-70
2021/08/27 01:49:09;;;;;;;10.15;2.70;;;;;;;;;;5014841;28;20053;-70
2021/08/27 01:51:54;;;;;;;11.63;2.72;;;;;;;;;;5016343;28;20054;-70
2021/08/27 01:54:39;;;;;;;8.80;1.98;;;;;;;;;;4999752;28;20400;-69
2021/08/27 01:57:25;;;;;;;8.60;2.05;;;;;;;;;;5007418;28;20054;-69
2021/08/27 02:00:11;;;;;;;9.98;2.60;;;;;;;;;;4996443;28;20129;-70
2021/08/27 02:02:57;;;;;;;7.72;2.20;;;;;;;;;;4995144;28;20054;-69
2021/08/27 02:05:42;;;;;;;8.23;2.20;;;;;;;;;;4981764;28;20058;-70
2021/08/27 02:08:27;;;;;;;14.18;2.15;;;;;;;;;;4983550;28;20059;-70
2021/08/27 02:11:12;;;;;;;10.23;2.00;;;;;;;;;;4985510;28;20137;-70
2021/08/27 02:13:58;;;;;;;8.23;2.17;;;;;;;;;;4984916;28;20062;-70
2021/08/27 02:16:43;;;;;;;8.73;2.08;;;;;;;;;;4993065;28;20062;-70
2021/08/27 02:19:28;;;;;;;10.80;1.98;;;;;;;;;;5018602;28;20054;-70
2021/08/27 02:22:15;;;;;;;9.32;1.90;;;;;;;;;;5004770;28;20125;-70
2021/08/27 02:25:03;;;;;;;6.95;2.05;;;;;;;;;;5019263;28;20046;-69
2021/08/27 02:27:48;;;;;;;7.78;2.05;;;;;;;;;;5003381;28;20058;-70
2021/08/27 02:30:33;;;;;;;9.55;2.13;;;;;;;;;;4998215;28;20050;-70
2021/08/27 02:33:19;;;;;;;11.43;2.60;;;;;;;;;;5048456;23;20132;-68
2021/08/27 02:36:04;;;;;;;7.05;1.85;;;;;;;;;;5034427;28;20049;-69
2021/08/27 02:38:49;;;;;;;6.35;1.88;;;;;;;;;;5033088;28;20138;-69
2021/08/27 02:41:35;;;;;;;12.98;2.50;;;;;;;;;;5020047;28;20053;-68
2021/08/27 02:44:20;;;;;;;7.47;2.17;;;;;;;;;;5033675;28;20503;-68
2021/08/27 02:47:05;;;;;;;8.70;2.47;;;;;;;;;;5030434;28;20057;-69
2021/08/27 02:49:51;;;;;;;8.45;2.33;;;;;;;;;;5015371;28;20046;-69
2021/08/27 02:52:36;;;;;;;9.25;2.28;;;;;;;;;;5014337;28;20050;-69
2021/08/27 02:55:22;;;;;;;5.38;2.13;;;;;;;;;;5014975;28;20050;-68
2021/08/27 02:58:27;;;;;;;7.30;2.50;;;;;;;;;;5020939;28;20381;-69
2021/08/27 03:01:17;;;;;;;9.77;2.40;;;;;;;;;;5019769;28;20045;-69
2021/08/27 03:04:07;;;;;;;7.10;1.83;;;;;;;;;;5019950;28;20053;-69
2021/08/27 03:07:05;;;;;;;7.80;2.15;;;;;;;;;;5033458;28;20068;-69
2021/08/27 03:10:10;;;;;;;6.00;1.83;;;;;;;;;;5017435;28;20061;-69
2021/08/27 03:12:58;;;;;;;9.25;2.47;;;;;;;;;;5034451;28;20057;-69
2021/08/27 03:15:43;;;;;;;11.00;2.75;;;;;;;;;;5033175;28;20053;-68
2021/08/27 03:18:47;;;;;;;7.00;1.33;;;;;;;;;;5031797;28;20073;-69
2021/08/27 03:21:34;;;;;;;8.98;1.20;;;;;;;;;;5034630;28;20388;-70
2021/08/27 03:24:35;;;;;;;6.80;1.85;;;;;;;;;;5033206;28;20049;-69
2021/08/27 03:27:24;;;;;;;6.00;1.52;;;;;;;;;;5033428;28;20053;-69
2021/08/27 03:30:11;;;;;;;4.22;1.58;;;;;;;;;;5031060;28;20392;-68
2021/08/27 03:33:02;;;;;;;7.85;1.55;;;;;;;;;;5018991;28;20057;-70
2021/08/27 03:35:51;;;;;;;6.00;1.83;;;;;;;;;;5018753;28;20467;-69
2021/08/27 03:38:36;;;;;;;5.28;1.00;;;;;;;;;;5034187;28;20073;-69
2021/08/27 03:41:21;;;;;;;6.25;1.25;;;;;;;;;;4999414;28;20058;-69
2021/08/27 03:44:06;;;;;;;1.88;0.93;;;;;;;;;;5012995;28;20049;-69
2021/08/27 03:46:51;;;;;;;3.47;0.93;;;;;;;;;;5013007;28;20061;-69
2021/08/27 03:49:36;;;;;;;2.05;0.80;;;;;;;;;;5016898;28;20045;-69
2021/08/27 03:52:21;;;;;;;4.07;1.38;;;;;;;;;;5032275;28;20049;-69
2021/08/27 03:55:08;;;;;;;5.97;1.67;;;;;;;;;;5028435;28;20057;-69
2021/08/27 03:57:53;;;;;;;6.22;1.60;;;;;;;;;;4999103;28;20062;-69
2021/08/27 04:00:38;;;;;;;4.75;1.52;;;;;;;;;;5020286;28;20567;-69
2021/08/27 04:03:23;;;;;;;5.35;1.27;;;;;;;;;;5018745;28;20049;-69
2021/08/27 04:06:09;;;;;;;7.28;1.48;;;;;;;;;;5032692;28;20045;-69
2021/08/27 04:08:55;;;;;;;5.63;1.50;;;;;;;;;;5033522;28;20558;-68
2021/08/27 04:11:40;;;;;;;8.90;1.45;;;;;;;;;;5016628;28;20054;-69
2021/08/27 04:14:25;;;;;;;7.05;1.75;;;;;;;;;;5012250;28;20054;-69
2021/08/27 04:17:10;;;;;;;6.65;1.67;;;;;;;;;;5012445;28;20223;-68
2021/08/27 04:19:56;;;;;;;7.82;1.85;;;;;;;;;;5013790;28;20057;-69
2021/08/27 04:22:41;;;;;;;4.65;1.35;;;;;;;;;;5013878;28;20050;-68
2021/08/27 04:25:27;;;;;;;8.05;1.65;;;;;;;;;;5012303;28;20057;-68
2021/08/27 04:28:12;;;;;;;6.40;1.70;;;;;;;;;;5013211;28;20057;-69
2021/08/27 04:30:57;;;;;;;6.70;1.42;;;;;;;;;;5014532;28;20054;-68
2021/08/27 04:33:42;;;;;;;9.93;1.73;;;;;;;;;;5032037;28;20049;-68
2021/08/27 04:36:28;;;;;;;4.28;1.20;;;;;;;;;;5031651;28;20093;-68
2021/08/27 04:39:13;;;;;;;8.05;1.88;;;;;;;;;;5031839;28;20054;-68
2021/08/27 04:42:00;;;;;;;6.95;1.55;;;;;;;;;;5023405;28;20057;-68
2021/08/27 04:44:45;;;;;;;5.93;1.40;;;;;;;;;;5011167;28;20531;-69
2021/08/27 04:47:30;;;;;;;15.38;3.15;;;;;;;;;;5011890;28;20093;-69
2021/08/27 04:50:15;;;;;;;11.93;2.75;;;;;;;;;;5011963;28;20062;-69
2021/08/27 04:53:00;;;;;;;11.30;2.10;;;;;;;;;;5022996;28;20057;-69
2021/08/27 04:55:45;;;;;;;6.18;1.98;;;;;;;;;;5045381;28;20057;-69
2021/08/27 04:58:30;;;;;;;9.40;2.85;;;;;;;;;;5031411;28;20049;-69
2021/08/27 05:01:15;;;;;;;8.10;1.95;;;;;;;;;;5031316;28;20125;-69
2021/08/27 05:04:00;;;;;;;7.25;2.13;;;;;;;;;;5027694;28;20053;-69
2021/08/27 05:06:46;;;;;;;10.75;2.70;;;;;;;;;;5031455;28;20124;-69
2021/08/27 05:09:31;;;;;;;8.45;1.90;;;;;;;;;;5031303;28;20057;-69
2021/08/27 05:12:16;;;;;;;11.82;2.33;;;;;;;;;;5014465;28;20085;-69
2021/08/27 05:15:01;;;;;;;8.38;2.10;;;;;;;;;;5013829;28;20061;-69
2021/08/27 05:17:47;;;;;;;11.30;2.10;;;;;;;;;;5030389;28;20054;-69
2021/08/27 05:20:32;;;;;;;8.90;2.30;;;;;;;;;;5032448;28;20436;-69
2021/08/27 05:23:17;;;;;;;9.18;2.33;;;;;;;;;;5031172;28;20057;-69
2021/08/27 05:26:04;;;;;;;9.27;2.47;;;;;;;;;;5028518;28;20057;-69
2021/08/27 05:28:49;;;;;;;11.13;2.30;;;;;;;;;;5010516;28;20132;-69
2021/08/27 05:31:34;;;;;;;10.43;2.53;;;;;;;;;;5010963;28;20061;-69
2021/08/27 05:34:20;;;;;;;8.15;2.10;;;;;;;;;;5011078;28;20050;-69
2021/08/27 05:37:06;;;;;;;11.88;2.60;;;;;;;;;;5017938;28;20053;-69
2021/08/27 05:39:51;;;;;;;8.85;2.45;;;;;;;;;;5021023;28;20050;-69
2021/08/27 05:42:36;;;;;;;9.68;2.33;;;;;;;;;;5021710;28;20053;-69
2021/08/27 05:45:22;;;;;;;9.80;2.38;;;;;;;;;;5018113;28;20050;-69
2021/08/27 05:48:07;;;;;;;8.10;1.92;;;;;;;;;;5021002;28;20057;-69
2021/08/27 05:50:52;;;;;;;9.98;2.78;;;;;;;;;;5019385;28;20136;-69
2021/08/27 05:53:37;;;;;;;8.60;2.28;;;;;;;;;;5035283;28;20049;-69
2021/08/27 05:56:22;;;;;;;15.93;2.53;;;;;;;;;;5021623;28;20121;-70
2021/08/27 05:59:07;;;;;;;9.10;2.35;;;;;;;;;;5021431;28;20057;-70
2021/08/27 06:01:52;;;;;;;10.50;2.40;;;;;;;;;;5018430;28;20495;-70
2021/08/27 06:04:38;;;;;;;12.35;2.85;;;;;;;;;;5007526;28;20041;-70
2021/08/27 06:07:23;;;;;;;7.82;1.95;;;;;;;;;;5007757;28;20132;-70
2021/08/27 06:10:11;;;;;;;11.05;2.83;;;;;;;;;;5021646;28;20058;-70
2021/08/27 06:12:56;;;;;;;9.75;2.20;;;;;;;;;;5036050;28;20492;-70
2021/08/27 06:15:42;;;;;;;8.85;2.22;;;;;;;;;;5035119;28;20050;-70
2021/08/27 06:18:28;;;;;;;9.60;1.92;;;;;;;;;;5021166;28;20720;-70
2021/08/27 06:21:13;;;;;;;7.50;2.40;;;;;;;;;;5016404;28;20049;-70
2021/08/27 06:23:58;;;;;;;12.55;2.28;;;;;;;;;;5017210;28;20046;-69
2021/08/27 06:26:43;;;;;;;11.00;2.60;;;;;;;;;;5022047;28;20814;-69
2021/08/27 06:29:28;;;;;;;15.10;3.15;;;;;;;;;;5022353;28;20049;-69
2021/08/27 06:32:14;;;;;;;14.75;2.25;;;;;;;;;;5034524;28;20046;-69
2021/08/27 06:34:59;;;;;;;8.10;2.35;;;;;;;;;;5021624;28;20117;-69
2021/08/27 06:40:48;;;;;;;11.60;3.10;;;;;;;;;;5021043;28;20058;-69
2021/08/27 06:43:35;;;;;;;10.57;3.20;;;;;;;;;;5015562;28;20054;-69
2021/08/27 06:46:21;;;;;;;11.73;2.25;;;;;;;;;;5022232;28;20073;-69
2021/08/27 06:49:07;;;;;;;14.88;2.80;;;;;;;;;;5021013;28;20058;-69
2021/08/27 06:51:52;;;;;;;10.60;2.92;;;;;;;;;;5018906;28;20539;-70
2021/08/27 06:54:37;;;;;;;9.73;2.70;;;;;;;;;;5014325;28;20054;-69
2021/08/27 06:57:23;;;;;;;9.30;2.80;;;;;;;;;;5014939;28;20049;-69
2021/08/27 07:00:08;;;;;;;12.68;3.50;;;;;;;;;;5013705;28;21521;-69
2021/08/27 07:02:54;;;;;;;10.00;2.42;;;;;;;;;;5015063;28;20393;-70
2021/08/27 07:05:39;;;;;;;12.52;3.40;;;;;;;;;;5013486;28;20058;-69
2021/08/27 07:08:24;;;;;;;9.75;2.45;;;;;;;;;;5013763;28;20066;-68
2021/08/27 07:11:10;;;;;;;9.27;2.50;;;;;;;;;;5012954;28;20072;-68
2021/08/27 07:13:55;;;;;;;10.95;2.30;;;;;;;;;;5014260;28;20468;-67
2021/08/27 07:16:40;;;;;;;11.95;2.28;;;;;;;;;;5014727;28;20063;-68
2021/08/27 07:19:26;;;;;;;14.57;3.25;;;;;;;;;;5013494;28;20046;-68
2021/08/27 07:22:11;;;;;;;11.10;2.97;;;;;;;;;;5013321;28;20050;-68
2021/08/27 07:24:56;;;;;;;9.43;2.40;;;;;;;;;;5014133;28;20046;-68
2021/08/27 07:27:41;;;;;;;12.65;2.50;;;;;;;;;;5014821;28;20050;-68
2021/08/27 07:30:27;;;;;;;12.40;2.65;;;;;;;;;;5013310;28;20054;-69
2021/08/27 07:33:12;;;;;;;11.20;3.00;;;;;;;;;;5029706;28;20128;-68
2021/08/27 07:35:57;;;;;;;15.43;2.95;;;;;;;;;;5034208;28;20049;-68
2021/08/27 07:38:42;;;;;;;12.45;3.13;;;;;;;;;;5033221;28;20065;-68
2021/08/27 07:41:27;;;;;;;14.80;3.15;;;;;;;;;;5027708;28;20054;-67
2021/08/27 07:44:13;;;;;;;9.18;2.47;;;;;;;;;;5023392;28;20077;-68
2021/08/27 07:46:58;;;;;;;6.60;2.10;;;;;;;;;;5014814;28;20668;-68
2021/08/27 07:49:43;;;;;;;11.48;2.42;;;;;;;;;;5015677;28;20117;-69
2021/08/27 07:52:28;;;;;;;8.48;1.95;;;;;;;;;;5030677;28;20397;-68
2021/08/27 07:55:13;;;;;;;13.70;2.65;;;;;;;;;;5013824;28;20548;-69
2021/08/27 07:57:59;;;;;;;11.10;1.55;;;;;;;;;;5012828;28;20385;-68
2021/08/27 08:00:43;;;;;;;9.60;2.22;;;;;;;;;;5015897;28;20365;-69
2021/08/27 08:03:29;;;;;;;7.07;1.55;;;;;;;;;;5027826;28;20508;-68
2021/08/27 08:06:14;;;;;;;6.75;1.60;;;;;;;;;;5024389;28;20448;-68
2021/08/27 08:09:00;;;;;;;8.15;1.73;;;;;;;;;;5023459;28;20057;-68
2021/08/27 08:11:45;;;;;;;8.25;1.50;;;;;;;;;;5023973;28;20046;-68
2021/08/27 08:14:30;;;;;;;5.78;1.45;;;;;;;;;;5020399;28;20453;-68
2021/08/27 08:17:15;;;;;;;4.22;0.90;;;;;;;;;;5020970;28;20053;-68
2021/08/27 08:20:01;;;;;;;6.25;1.50;;;;;;;;;;5024835;28;20046;-68
2021/08/27 08:22:46;;;;;;;5.25;1.20;;;;;;;;;;5031572;28;20077;-68
2021/08/27 08:25:31;;;;;;;3.88;1.42;;;;;;;;;;5022702;28;20492;-68
2021/08/27 08:28:16;;;;;;;4.18;1.55;;;;;;;;;;5021565;28;20050;-69
2021/08/27 08:31:02;;;;;;;6.75;1.70;;;;;;;;;;5029991;28;20053;-69
2021/08/27 08:33:48;;;;;;;5.78;1.55;;;;;;;;;;5044002;23;20046;-64
2021/08/27 08:36:33;;;;;;;4.75;1.45;;;;;;;;;;5031235;28;20049;-65
2021/08/27 08:39:18;;;;;;;8.82;2.10;;;;;;;;;;5033173;28;20038;-64
2021/08/27 08:42:04;;;;;;;2.92;1.08;;;;;;;;;;5032953;28;20053;-65
2021/08/27 08:44:49;;;;;;;4.65;2.10;;;;;;;;;;5010605;28;20046;-65
2021/08/27 08:47:37;;;;;;;8.43;1.35;;;;;;;;;;5013237;28;20053;-64
2021/08/27 08:50:23;;;;;;;3.97;1.65;;;;;;;;;;5013009;28;20499;-65
2021/08/27 08:53:08;;;;;;;8.15;2.08;;;;;;;;;;5012156;28;20058;-65
2021/08/27 08:55:53;;;;;;;8.70;1.60;;;;;;;;;;5010748;28;20129;-66
2021/08/27 08:58:38;;;;;;;6.13;1.60;;;;;;;;;;5012769;28;20050;-66
2021/08/27 09:01:24;;;;;;;7.97;2.28;;;;;;;;;;5012961;28;20389;-66
2021/08/27 09:04:09;;;;;;;9.68;1.98;;;;;;;;;;5010999;28;20053;-67
2021/08/27 09:06:56;;;;;;;6.78;1.77;;;;;;;;;;5012806;28;20053;-66
2021/08/27 09:09:41;;;;;;;7.43;2.08;;;;;;;;;;5012980;28;20055;-66
2021/08/27 09:12:27;;;;;;;10.02;2.10;;;;;;;;;;5012680;28;20050;-65
2021/08/27 09:15:13;;;;;;;5.45;1.98;;;;;;;;;;5010461;28;20511;-66
2021/08/27 09:17:59;;;;;;;11.88;2.45;;;;;;;;;;5012800;28;20054;-64
2021/08/27 09:20:44;;;;;;;10.85;1.98;;;;;;;;;;5012865;28;20045;-65
2021/08/27 09:23:29;;;;;;;7.13;1.88;;;;;;;;;;5012291;28;20046;-65
2021/08/27 09:26:33;;;;;;;6.93;1.33;;;;;;;;;;5011012;28;20045;-66
2021/08/27 09:29:40;;;;;;;7.70;2.05;;;;;;;;;;5012570;28;20050;-65
2021/08/27 09:32:29;;;;;;;5.50;1.42;;;;;;;;;;5012408;28;20255;-65
2021/08/27 09:35:16;;;;;;;10.10;2.28;;;;;;;;;;5010448;28;20046;-65
2021/08/27 09:38:02;;;;;;;9.82;2.30;;;;;;;;;;4992664;28;20050;-65
2021/08/27 09:40:49;;;;;;;8.23;2.00;;;;;;;;;;4992935;28;20054;-65
2021/08/27 09:43:43;;;;;;;7.22;1.65;;;;;;;;;;4991461;28;20051;-65
2021/08/27 09:46:36;;;;;;;7.75;1.70;;;;;;;;;;4998372;28;20081;-66
2021/08/27 09:49:34;;;;;;;7.07;2.33;;;;;;;;;;5012418;28;20054;-65
2021/08/27 09:52:19;;;;;;;11.40;1.48;;;;;;;;;;5012207;28;20046;-66
2021/08/27 09:55:08;;;;;;;4.63;1.73;;;;;;;;;;5012188;28;20054;-66
2021/08/27 09:58:01;;;;;;;6.93;2.22;;;;;;;;;;5010229;28;20045;-66
2021/08/27 10:00:50;;;;;;;5.05;1.45;;;;;;;;;;5012193;28;20064;-65
2021/08/27 10:03:35;;;;;;;7.95;1.88;;;;;;;;;;5012067;28;20081;-66
2021/08/27 10:06:33;;;;;;;6.10;1.80;;;;;;;;;;5011321;28;20050;-66
2021/08/27 10:09:18;;;;;;;5.15;1.63;;;;;;;;;;5012122;28;20530;-66
2021/08/27 10:12:04;;;;;;;8.57;2.50;;;;;;;;;;5011977;28;20508;-66
2021/08/27 10:14:49;;;;;;;6.53;1.98;;;;;;;;;;5011931;28;20061;-66
2021/08/27 10:17:35;;;;;;;4.78;1.52;;;;;;;;;;5009318;28;20042;-66
2021/08/27 10:20:20;;;;;;;5.43;1.33;;;;;;;;;;5012292;28;20125;-66
2021/08/27 10:23:07;;;;;;;4.97;1.20;;;;;;;;;;5012103;28;20121;-65
2021/08/27 10:25:52;;;;;;;3.58;1.55;;;;;;;;;;5012250;28;20050;-66
2021/08/27 10:28:37;;;;;;;6.25;1.50;;;;;;;;;;5013720;28;20128;-66
2021/08/27 10:31:42;;;;;;;7.18;2.05;;;;;;;;;;5014847;28;20125;-66
2021/08/27 10:34:40;;;;;;;7.50;1.73;;;;;;;;;;5015197;28;20062;-65
2021/08/27 10:37:41;;;;;;;7.00;1.63;;;;;;;;;;5015607;28;20058;-65
2021/08/27 10:40:26;;;;;;;4.43;1.33;;;;;;;;;;5015571;28;20050;-66
2021/08/27 10:43:11;;;;;;;7.15;1.27;;;;;;;;;;5015635;28;20045;-65
2021/08/27 10:45:56;;;;;;;7.38;1.50;;;;;;;;;;5014528;28;20053;-65
2021/08/27 10:48:48;;;;;;;8.52;1.83;;;;;;;;;;5013160;28;20050;-66
2021/08/27 10:51:37;;;;;;;5.40;1.00;;;;;;;;;;5015593;28;20050;-65
2021/08/27 10:54:22;;;;;;;5.47;1.85;;;;;;;;;;5015039;28;20045;-65
2021/08/27 10:57:07;;;;;;;3.72;1.25;;;;;;;;;;5014217;28;20053;-66
2021/08/27 10:59:54;;;;;;;7.75;1.75;;;;;;;;;;4993664;28;20050;-66
2021/08/27 11:02:52;;;;;;;5.28;1.60;;;;;;;;;;5014098;28;20077;-65
2021/08/27 11:05:39;;;;;;;5.10;1.23;;;;;;;;;;5014632;28;20050;-65
2021/08/27 11:08:27;;;;;;;7.28;1.95;;;;;;;;;;5013127;28;20054;-65
2021/08/27 11:11:12;;;;;;;6.20;1.25;;;;;;;;;;5015051;28;20419;-65
2021/08/27 11:13:57;;;;;;;5.07;1.55;;;;;;;;;;5014551;28;20504;-65
2021/08/27 11:16:42;;;;;;;2.97;1.10;;;;;;;;;;5014019;28;20049;-65
2021/08/27 11:19:28;;;;;;;5.57;1.30;;;;;;;;;;5012552;28;20508;-66
2021/08/27 11:22:16;;;;;;;8.27;1.92;;;;;;;;;;5014714;28;20054;-66
2021/08/27 11:25:07;;;;;;;3.95;1.40;;;;;;;;;;5014486;28;20054;-66
2021/08/27 11:28:10;;;;;;;4.43;1.17;;;;;;;;;;5014658;28;20115;-65
2021/08/27 11:31:01;;;;;;;4.10;1.27;;;;;;;;;;5014819;28;20078;-65
2021/08/27 11:33:49;;;;;;;8.40;1.23;;;;;;;;;;5014183;28;20046;-65
2021/08/27 11:36:35;;;;;;;9.02;1.67;;;;;;;;;;5014628;28;20099;-65
2021/08/27 11:39:21;;;;;;;5.93;1.13;;;;;;;;;;5011534;28;20050;-65
2021/08/27 11:42:06;;;;;;;5.82;1.33;;;;;;;;;;5013507;28;20054;-65
2021/08/27 11:45:20;;;;;;;4.70;1.35;;;;;;;;;;5012178;28;20049;-65
2021/08/27 11:48:08;;;;;;;5.63;1.70;;;;;;;;;;4994788;28;20085;-66
2021/08/27 11:50:53;;;;;;;6.50;1.88;;;;;;;;;;5002009;28;20386;-66
2021/08/27 11:53:38;;;;;;;6.10;2.15;;;;;;;;;;5011959;28;20508;-65
2021/08/27 11:56:24;;;;;;;7.90;1.27;;;;;;;;;;5012613;28;20046;-65
2021/08/27 11:59:11;;;;;;;6.50;1.45;;;;;;;;;;5014082;28;20050;-65
2021/08/27 12:01:56;;;;;;;8.52;1.80;;;;;;;;;;5014009;28;20050;-65
2021/08/27 12:04:42;;;;;;;10.68;2.13;;;;;;;;;;5013913;28;20050;-65
2021/08/27 12:07:28;;;;;;;5.97;1.67;;;;;;;;;;5012281;28;20049;-65
2021/08/27 12:10:14;;;;;;;9.13;2.03;;;;;;;;;;5013736;28;20050;-65
2021/08/27 12:12:59;;;;;;;11.82;2.78;;;;;;;;;;5013894;28;20124;-65
2021/08/27 12:15:45;;;;;;;8.45;1.70;;;;;;;;;;5013602;28;20058;-65
2021/08/27 12:18:35;;;;;;;6.40;1.60;;;;;;;;;;5011311;28;20053;-65
2021/08/27 12:21:21;;;;;;;6.00;1.58;;;;;;;;;;5013742;28;20125;-65
2021/08/27 12:24:10;;;;;;;8.63;1.98;;;;;;;;;;5013321;28;20050;-65
2021/08/27 12:26:58;;;;;;;4.18;1.20;;;;;;;;;;5011535;28;20092;-65
2021/08/27 12:29:44;;;;;;;7.82;2.35;;;;;;;;;;4993871;28;20054;-66
2021/08/27 12:32:29;;;;;;;5.03;1.10;;;;;;;;;;4993760;28;20054;-64
2021/08/27 12:35:15;;;;;;;8.18;1.58;;;;;;;;;;4993458;28;20054;-65
2021/08/27 12:38:00;;;;;;;7.95;1.80;;;;;;;;;;4999772;28;20047;-65
2021/08/27 12:40:46;;;;;;;5.07;1.95;;;;;;;;;;5012385;28;20050;-65
2021/08/27 12:43:31;;;;;;;5.30;1.65;;;;;;;;;;5012934;28;20050;-65
2021/08/27 12:46:26;;;;;;;6.28;1.27;;;;;;;;;;5012409;28;20050;-65
2021/08/27 12:49:15;;;;;;;5.03;1.40;;;;;;;;;;5010538;28;20513;-65
2021/08/27 12:52:01;;;;;;;7.05;1.63;;;;;;;;;;5012890;28;20439;-66
2021/08/27 12:54:47;;;;;;;7.32;2.10;;;;;;;;;;5012934;28;20050;-65
2021/08/27 12:57:42;;;;;;;8.65;1.67;;;;;;;;;;5013022;28;20049;-64
2021/08/27 13:00:28;;;;;;;6.90;1.33;;;;;;;;;;5011932;28;20050;-65
2021/08/27 13:03:15;;;;;;;7.05;1.55;;;;;;;;;;5012884;28;20571;-65
2021/08/27 13:06:00;;;;;;;4.50;1.30;;;;;;;;;;5012976;28;20045;-64
2021/08/27 13:08:56;;;;;;;7.38;1.90;;;;;;;;;;5009677;28;20057;-64
2021/08/27 13:11:44;;;;;;;5.95;2.17;;;;;;;;;;5012251;28;20400;-64
2021/08/27 13:14:32;;;;;;;5.85;1.45;;;;;;;;;;5012530;28;20397;-65
2021/08/27 13:17:18;;;;;;;5.13;1.10;;;;;;;;;;5012786;28;20085;-64
2021/08/27 13:20:04;;;;;;;4.05;1.55;;;;;;;;;;5011432;28;20045;-64
2021/08/27 13:22:49;;;;;;;4.60;1.10;;;;;;;;;;5012080;28;20053;-65
2021/08/27 13:25:35;;;;;;;5.30;1.17;;;;;;;;;;5012551;28;20124;-64
2021/08/27 13:28:20;;;;;;;6.15;1.48;;;;;;;;;;5010883;28;20061;-64
2021/08/27 13:31:06;;;;;;;5.25;1.60;;;;;;;;;;4992836;28;20513;-64
2021/08/27 13:33:51;;;;;;;7.43;1.50;;;;;;;;;;4992337;28;20054;-64
2021/08/27 13:36:36;;;;;;;7.20;2.13;;;;;;;;;;4992932;28;20059;-65
2021/08/27 13:39:21;;;;;;;4.75;1.30;;;;;;;;;;4997134;28;20120;-65
2021/08/27 13:42:07;;;;;;;7.20;1.42;;;;;;;;;;5010515;28;20129;-66
2021/08/27 13:44:52;;;;;;;7.30;1.25;;;;;;;;;;4995311;28;20050;-66
2021/08/27 13:47:38;;;;;;;5.20;1.30;;;;;;;;;;4992688;28;20080;-66
2021/08/27 13:50:23;;;;;;;6.00;1.40;;;;;;;;;;5000219;28;20057;-66
2021/08/27 13:53:08;;;;;;;4.13;1.23;;;;;;;;;;5011525;28;20054;-65
2021/08/27 13:55:54;;;;;;;5.40;1.40;;;;;;;;;;5012126;28;20045;-65
2021/08/27 13:58:39;;;;;;;10.70;1.73;;;;;;;;;;5011885;28;20129;-66
2021/08/27 14:01:25;;;;;;;6.28;1.60;;;;;;;;;;5011348;28;20473;-66
2021/08/27 14:04:10;;;;;;;6.95;1.35;;;;;;;;;;5011340;28;20046;-65
2021/08/27 14:06:57;;;;;;;6.15;1.40;;;;;;;;;;5014595;28;20046;-65
2021/08/27 14:09:42;;;;;;;5.55;1.33;;;;;;;;;;5011553;28;20558;-66
2021/08/27 14:12:28;;;;;;;5.88;1.10;;;;;;;;;;4995229;28;20448;-66
2021/08/27 14:15:13;;;;;;;6.18;1.52;;;;;;;;;;4981062;28;20113;-64
2021/08/27 14:17:59;;;;;;;4.88;1.35;;;;;;;;;;4995179;28;20054;-64
2021/08/27 14:20:45;;;;;;;7.43;1.70;;;;;;;;;;4998896;28;20121;-64
2021/08/27 14:23:32;;;;;;;6.75;1.33;;;;;;;;;;4992902;28;20154;-67
2021/08/27 14:26:17;;;;;;;6.55;1.70;;;;;;;;;;4994176;28;20101;-66
2021/08/27 14:29:02;;;;;;;7.80;1.27;;;;;;;;;;4992191;28;20145;-65
2021/08/27 14:31:48;;;;;;;7.65;1.40;;;;;;;;;;4998091;28;20046;-65
2021/08/27 14:34:33;;;;;;;8.20;1.02;;;;;;;;;;5012927;28;20125;-65
2021/08/27 14:37:19;;;;;;;3.25;1.10;;;;;;;;;;5013493;28;20519;-65
2021/08/27 14:40:06;;;;;;;3.17;1.05;;;;;;;;;;5013395;28;20054;-65
2021/08/27 14:42:51;;;;;;;5.18;1.25;;;;;;;;;;5012320;28;20057;-65
2021/08/27 14:45:36;;;;;;;1.80;0.65;;;;;;;;;;5009319;28;20053;-65
2021/08/27 14:48:22;;;;;;;5.30;0.80;;;;;;;;;;5013043;28;20046;-65
2021/08/27 14:51:07;;;;;;;4.90;1.15;;;;;;;;;;5013920;28;20046;-64
2021/08/27 14:53:53;;;;;;;3.92;0.95;;;;;;;;;;5013362;28;20527;-65
2021/08/27 14:56:38;;;;;;;7.03;1.15;;;;;;;;;;5013347;28;20433;-65
2021/08/27 14:59:24;;;;;;;3.97;1.10;;;;;;;;;;5013294;28;20085;-65
2021/08/27 15:02:09;;;;;;;7.72;1.15;;;;;;;;;;5012242;28;20053;-64
2021/08/27 15:04:54;;;;;;;5.05;1.45;;;;;;;;;;5014914;28;20042;-65
2021/08/27 15:07:39;;;;;;;11.95;2.47;;;;;;;;;;5013411;28;20464;-64
2021/08/27 15:10:25;;;;;;;7.57;1.73;;;;;;;;;;5014820;28;20049;-64
2021/08/27 15:13:10;;;;;;;7.10;1.60;;;;;;;;;;5011608;28;20050;-65
2021/08/27 15:15:57;;;;;;;6.45;1.35;;;;;;;;;;5012328;28;20491;-65
2021/08/27 15:18:43;;;;;;;14.02;2.38;;;;;;;;;;5013664;28;20406;-64
2021/08/27 15:21:28;;;;;;;7.53;1.83;;;;;;;;;;5013357;28;20504;-64
2021/08/27 15:24:13;;;;;;;6.60;1.85;;;;;;;;;;5011667;28;20500;-65
2021/08/27 15:26:59;;;;;;;7.38;1.67;;;;;;;;;;5013005;28;20049;-65
2021/08/27 15:29:44;;;;;;;7.60;1.33;;;;;;;;;;5013346;28;20081;-64
2021/08/27 15:32:29;;;;;;;5.93;1.45;;;;;;;;;;5013033;28;20061;-64
2021/08/27 15:35:15;;;;;;;4.82;1.40;;;;;;;;;;4997663;28;20050;-65
2021/08/27 15:38:00;;;;;;;5.07;2.30;;;;;;;;;;4999244;28;20477;-65
2021/08/27 15:40:47;;;;;;;6.47;1.65;;;;;;;;;;5012670;28;20108;-64
2021/08/27 15:43:33;;;;;;;5.65;1.52;;;;;;;;;;5012969;28;20050;-65
2021/08/27 15:46:18;;;;;;;7.60;2.20;;;;;;;;;;5013136;28;20143;-64
2021/08/27 15:49:03;;;;;;;7.38;1.52;;;;;;;;;;5011154;28;20046;-65
2021/08/27 15:51:50;;;;;;;5.13;1.75;;;;;;;;;;4998854;28;20431;-64
2021/08/27 15:54:36;;;;;;;9.27;2.22;;;;;;;;;;4999029;28;20054;-64
2021/08/27 15:57:21;;;;;;;6.07;1.40;;;;;;;;;;5012322;28;20185;-65
2021/08/27 16:00:09;;;;;;;4.15;1.27;;;;;;;;;;5012561;28;20058;-65
2021/08/27 16:02:58;;;;;;;5.70;1.52;;;;;;;;;;5011501;28;20058;-65
2021/08/27 16:05:43;;;;;;;6.97;1.13;;;;;;;;;;5012128;28;20050;-64
2021/08/27 16:08:28;;;;;;;6.05;2.05;;;;;;;;;;5013645;28;20535;-65
2021/08/27 16:11:13;;;;;;;7.53;1.92;;;;;;;;;;5012505;28;20057;-64
2021/08/27 16:14:00;;;;;;;5.55;1.42;;;;;;;;;;5011420;28;20112;-64
2021/08/27 16:16:46;;;;;;;5.90;1.60;;;;;;;;;;4999008;28;20354;-65
2021/08/27 16:19:32;;;;;;;6.00;1.77;;;;;;;;;;5012625;28;20413;-64
2021/08/27 16:22:17;;;;;;;5.10;1.20;;;;;;;;;;5012273;28;20050;-65
2021/08/27 16:25:03;;;;;;;4.13;1.50;;;;;;;;;;5010036;28;20544;-64
2021/08/27 16:27:49;;;;;;;4.07;1.10;;;;;;;;;;4992277;28;20265;-64
2021/08/27 16:30:35;;;;;;;3.20;1.10;;;;;;;;;;5003058;28;20049;-64
2021/08/27 16:33:20;;;;;;;6.85;1.50;;;;;;;;;;5004581;28;20061;-64
2021/08/27 16:36:05;;;;;;;5.30;1.42;;;;;;;;;;5007794;28;20137;-64
2021/08/27 16:38:51;;;;;;;4.78;1.50;;;;;;;;;;4990135;28;20048;-64